createdAt,value
2017-10-19T00:02:10.551Z,24.17
2017-10-19T00:04:38.876Z,27.83
2017-10-19T00:07:07.198Z,32.07
2017-10-19T00:09:36.296Z,22.47
2017-10-19T00:12:06.134Z,33.93
2017-10-19T00:14:35.186Z,29.33
2017-10-19T00:17:03.472Z,34.23
2017-10-19T00:19:31.803Z,23.50
2017-10-19T00:22:00.086Z,24.57
2017-10-19T00:24:28.378Z,34.13
2017-10-19T00:26:56.695Z,28.63
2017-10-19T00:29:25.748Z,23.43
2017-10-19T00:31:54.055Z,24.77
2017-10-19T00:34:22.339Z,18.53
2017-10-19T00:36:50.679Z,27.57
2017-10-19T00:39:19.737Z,24.17
2017-10-19T00:41:48.058Z,23.40
2017-10-19T00:44:17.117Z,24.40
2017-10-19T00:46:45.444Z,29.17
2017-10-19T00:49:13.732Z,35.23
2017-10-19T00:51:42.059Z,27.23
2017-10-19T00:54:10.651Z,22.77
2017-10-19T00:56:38.976Z,26.27
2017-10-19T00:59:07.320Z,28.73
2017-10-19T01:01:36.366Z,40.30
2017-10-19T01:04:04.687Z,32.60
2017-10-19T01:06:32.974Z,28.03
2017-10-19T01:09:01.297Z,35.37
2017-10-19T01:11:30.392Z,47.60
2017-10-19T01:13:59.482Z,55.97
2017-10-19T01:16:27.790Z,75.70
2017-10-19T01:18:57.414Z,52.90
2017-10-19T01:21:26.477Z,75.93
2017-10-19T01:23:54.811Z,114.37
2017-10-19T01:26:23.867Z,62.90
2017-10-19T01:28:52.192Z,102.47
2017-10-19T01:31:20.589Z,157.60
2017-10-19T01:33:49.675Z,104.70
2017-10-19T01:36:18.008Z,115.60
2017-10-19T01:38:47.067Z,87.33
2017-10-19T01:41:15.392Z,129.43
2017-10-19T01:43:44.456Z,109.43
2017-10-19T01:46:12.804Z,162.63
2017-10-19T01:48:41.855Z,109.27
2017-10-19T01:51:10.156Z,100.17
2017-10-19T01:53:38.480Z,95.40
2017-10-19T01:56:07.544Z,99.83
2017-10-19T01:58:35.871Z,92.73
2017-10-19T02:01:04.962Z,113.37
2017-10-19T02:03:33.279Z,88.80
2017-10-19T02:06:02.361Z,70.37
2017-10-19T02:08:30.695Z,74.13
2017-10-19T02:10:58.987Z,112.33
2017-10-19T02:13:27.293Z,109.73
2017-10-19T02:15:55.618Z,114.73
2017-10-19T02:18:23.939Z,64.93
2017-10-19T02:20:53.031Z,83.53
2017-10-19T02:23:22.130Z,62.67
2017-10-19T02:25:50.521Z,53.67
2017-10-19T02:28:18.811Z,52.43
2017-10-19T02:30:47.135Z,54.53
2017-10-19T02:33:15.411Z,43.03
2017-10-19T02:35:44.505Z,77.27
2017-10-19T02:38:13.563Z,68.67
2017-10-19T02:40:41.882Z,86.80
2017-10-19T02:43:10.211Z,46.40
2017-10-19T02:45:39.280Z,84.27
2017-10-19T02:48:07.723Z,95.43
2017-10-19T02:50:36.017Z,48.97
2017-10-19T02:53:04.355Z,51.73
2017-10-19T02:55:34.159Z,54.93
2017-10-19T02:58:02.450Z,67.90
2017-10-19T03:00:30.779Z,80.37
2017-10-19T03:02:59.846Z,48.17
2017-10-19T03:05:28.171Z,68.13
2017-10-19T03:07:57.236Z,210.40
2017-10-19T03:10:25.525Z,81.73
2017-10-19T03:12:53.847Z,53.87
2017-10-19T03:15:23.684Z,61.70
2017-10-19T03:17:52.782Z,60.53
2017-10-19T03:20:22.624Z,109.93
2017-10-19T03:22:51.715Z,58.50
2017-10-19T03:25:21.559Z,87.27
2017-10-19T03:27:50.619Z,72.87
2017-10-19T03:30:18.947Z,91.70
2017-10-19T03:32:47.995Z,53.67
2017-10-19T03:35:16.356Z,56.20
2017-10-19T03:37:45.415Z,56.30
2017-10-19T03:40:13.736Z,76.57
2017-10-19T03:42:42.828Z,64.43
2017-10-19T03:45:11.117Z,61.43
2017-10-19T03:47:39.436Z,91.87
2017-10-19T03:50:08.572Z,58.43
2017-10-19T03:52:36.867Z,71.77
2017-10-19T03:55:05.193Z,69.00
2017-10-19T03:57:33.511Z,73.37
2017-10-19T04:00:02.602Z,56.77
2017-10-19T04:02:32.398Z,62.67
2017-10-19T04:05:00.719Z,59.10
2017-10-19T04:07:29.819Z,92.17
2017-10-19T04:09:58.096Z,57.73
2017-10-19T04:12:26.436Z,60.73
2017-10-19T04:14:55.503Z,56.97
2017-10-19T04:17:23.814Z,44.23
2017-10-19T04:19:52.879Z,83.53
2017-10-19T04:22:21.203Z,54.17
2017-10-19T04:24:50.279Z,65.43
2017-10-19T04:27:18.574Z,51.70
2017-10-19T04:29:46.895Z,44.17
2017-10-19T04:32:16.012Z,57.07
2017-10-19T04:34:45.068Z,55.33
2017-10-19T04:37:13.362Z,86.77
2017-10-19T04:39:41.683Z,85.03
2017-10-19T04:42:10.775Z,98.60
2017-10-19T04:44:39.060Z,65.53
2017-10-19T04:47:07.385Z,55.47
2017-10-19T04:49:36.461Z,96.90
2017-10-19T04:52:04.780Z,88.07
2017-10-19T04:54:33.883Z,107.13
2017-10-19T04:57:02.947Z,82.70
2017-10-19T04:59:31.244Z,82.50
2017-10-19T05:01:59.567Z,82.50
2017-10-19T05:04:28.622Z,100.40
2017-10-19T05:06:56.955Z,99.20
2017-10-19T05:09:26.773Z,116.27
2017-10-19T05:11:55.111Z,83.23
2017-10-19T05:14:23.453Z,55.60
2017-10-19T05:16:51.763Z,75.63
2017-10-19T05:19:20.832Z,82.70
2017-10-19T05:21:49.151Z,66.97
2017-10-19T05:24:18.999Z,67.60
2017-10-19T05:26:48.056Z,44.37
2017-10-19T05:29:16.339Z,62.30
2017-10-19T05:31:44.768Z,72.53
2017-10-19T05:34:14.600Z,94.23
2017-10-19T05:36:43.661Z,78.80
2017-10-19T05:39:11.992Z,82.03
2017-10-19T05:44:18.804Z,88.23
2017-10-19T05:46:48.599Z,96.83
2017-10-19T05:49:16.922Z,70.50
2017-10-19T05:51:46.030Z,86.97
2017-10-19T05:54:15.829Z,92.33
2017-10-19T05:56:44.126Z,83.40
2017-10-19T05:59:12.455Z,105.53
2017-10-19T06:01:41.517Z,98.97
2017-10-19T06:04:09.804Z,58.93
2017-10-19T06:06:38.127Z,80.37
2017-10-19T06:09:07.175Z,59.97
2017-10-19T06:11:35.511Z,57.13
2017-10-19T06:14:04.574Z,62.97
2017-10-19T06:16:32.886Z,73.60
2017-10-19T06:19:01.167Z,63.27
2017-10-19T06:21:29.505Z,55.20
2017-10-19T06:23:58.603Z,97.07
2017-10-19T06:26:27.827Z,43.87
2017-10-19T06:28:56.343Z,45.67
2017-10-19T06:31:24.631Z,52.40
2017-10-19T06:33:52.967Z,50.33
2017-10-19T06:36:21.242Z,43.40
2017-10-19T06:38:49.578Z,52.43
2017-10-19T06:41:18.672Z,40.73
2017-10-19T06:43:48.469Z,33.43
2017-10-19T06:46:16.796Z,34.27
2017-10-19T06:48:45.883Z,32.80
2017-10-19T06:51:15.723Z,34.30
2017-10-19T06:53:44.795Z,33.50
2017-10-19T06:56:13.088Z,34.97
2017-10-19T06:58:41.402Z,29.10
2017-10-19T07:01:11.195Z,27.00
2017-10-19T07:03:39.531Z,25.23
2017-10-19T07:06:08.597Z,31.50
2017-10-19T07:08:37.667Z,27.73
2017-10-19T07:11:05.993Z,33.50
2017-10-19T07:13:34.280Z,32.87
2017-10-19T07:16:02.688Z,31.60
2017-10-19T07:18:31.015Z,25.67
2017-10-19T07:21:00.067Z,31.30
2017-10-19T07:23:28.395Z,25.77
2017-10-19T07:25:57.614Z,25.73
2017-10-19T07:28:26.719Z,24.13
2017-10-19T07:30:55.840Z,24.63
2017-10-19T07:33:24.910Z,24.30
2017-10-19T07:35:53.287Z,28.10
2017-10-19T07:38:21.593Z,26.23
2017-10-19T07:40:49.934Z,26.80
2017-10-19T07:43:18.225Z,33.23
2017-10-19T07:45:46.519Z,26.33
2017-10-19T07:48:14.852Z,26.47
2017-10-19T07:50:43.184Z,29.60
2017-10-19T07:53:11.519Z,29.23
2017-10-19T07:55:40.082Z,28.00
2017-10-19T07:58:10.750Z,29.33
2017-10-19T08:00:39.084Z,25.20
2017-10-19T08:03:08.147Z,25.30
2017-10-19T08:05:36.483Z,26.13
2017-10-19T08:08:05.582Z,29.40
2017-10-19T08:10:34.648Z,28.73
2017-10-19T08:13:02.947Z,28.57
2017-10-19T08:15:31.280Z,29.17
2017-10-19T08:18:00.347Z,26.93
2017-10-19T08:20:28.689Z,29.80
2017-10-19T08:22:57.769Z,26.83
2017-10-19T08:25:26.103Z,29.20
2017-10-19T08:27:54.443Z,31.13
2017-10-19T08:30:24.281Z,29.37
2017-10-19T08:32:52.614Z,30.03
2017-10-19T08:35:20.945Z,31.83
2017-10-19T08:37:49.239Z,27.50
2017-10-19T08:40:19.079Z,30.47
2017-10-19T08:42:48.173Z,31.03
2017-10-19T08:45:16.514Z,46.80
2017-10-19T08:47:44.803Z,44.03
2017-10-19T08:50:13.106Z,45.90
2017-10-19T08:52:41.547Z,80.90
2017-10-19T08:55:10.668Z,54.40
2017-10-19T08:57:39.730Z,40.27
2017-10-19T09:00:08.083Z,65.70
2017-10-19T09:02:36.412Z,73.70
2017-10-19T09:05:04.747Z,66.90
2017-10-19T09:07:33.803Z,58.57
2017-10-19T09:10:02.281Z,63.10
2017-10-19T09:12:30.608Z,53.27
2017-10-19T09:14:58.930Z,81.17
2017-10-19T09:17:27.995Z,80.70
2017-10-19T09:19:56.318Z,88.47
2017-10-19T09:22:25.391Z,65.77
2017-10-19T09:24:53.747Z,81.47
2017-10-19T09:27:22.053Z,77.43
2017-10-19T09:29:50.374Z,72.93
2017-10-19T09:32:18.712Z,87.07
2017-10-19T09:34:47.812Z,69.77
2017-10-19T09:37:16.900Z,72.27
2017-10-19T09:39:46.725Z,95.30
2017-10-19T09:42:15.783Z,76.33
2017-10-19T09:44:44.120Z,64.00
2017-10-19T09:47:13.191Z,74.03
2017-10-19T09:49:41.504Z,63.50
2017-10-19T09:52:09.839Z,101.30
2017-10-19T09:54:38.145Z,81.47
2017-10-19T09:57:07.324Z,57.63
2017-10-19T09:59:37.188Z,112.33
2017-10-19T10:02:05.517Z,71.33
2017-10-19T10:04:35.335Z,88.97
2017-10-19T10:07:03.686Z,86.43
2017-10-19T10:09:31.974Z,86.77
2017-10-19T10:12:00.288Z,100.37
2017-10-19T10:14:28.631Z,135.63
2017-10-19T10:16:57.696Z,82.97
2017-10-19T10:19:26.032Z,68.00
2017-10-19T10:21:55.104Z,105.43
2017-10-19T10:24:24.946Z,79.17
2017-10-19T10:26:54.023Z,93.03
2017-10-19T10:29:22.364Z,86.70
2017-10-19T10:34:15.709Z,115.83
2017-10-19T10:36:44.047Z,102.23
2017-10-19T10:39:13.132Z,82.30
2017-10-19T10:41:42.971Z,85.33
2017-10-19T10:44:12.783Z,90.33
2017-10-19T10:46:41.107Z,84.60
2017-10-19T10:49:10.182Z,86.57
2017-10-19T10:51:40.019Z,84.63
2017-10-19T10:54:09.855Z,85.90
2017-10-19T10:56:38.928Z,85.90
2017-10-19T10:59:07.264Z,82.03
2017-10-19T11:01:36.339Z,81.00
2017-10-19T11:04:04.632Z,80.73
2017-10-19T11:06:32.976Z,93.10
2017-10-19T11:09:01.263Z,99.00
2017-10-19T11:14:01.995Z,86.57
2017-10-19T11:16:31.067Z,92.97
2017-10-19T11:18:59.415Z,102.07
2017-10-19T11:21:28.510Z,107.10
2017-10-19T11:23:57.611Z,93.20
2017-10-19T11:26:27.439Z,85.90
2017-10-19T11:28:56.552Z,93.50
2017-10-19T11:31:25.612Z,92.57
2017-10-19T11:33:53.903Z,100.47
2017-10-19T11:36:22.231Z,96.43
2017-10-19T11:38:52.070Z,83.30
2017-10-19T11:41:21.127Z,78.00
2017-10-19T11:43:49.419Z,85.60
2017-10-19T11:46:17.751Z,85.60
2017-10-19T11:48:46.817Z,71.00
2017-10-19T11:51:15.159Z,73.93
2017-10-19T11:53:44.214Z,74.43
2017-10-19T11:56:12.518Z,72.73
2017-10-19T11:58:40.834Z,69.93
2017-10-19T12:01:10.633Z,67.17
2017-10-19T12:03:38.982Z,73.00
2017-10-19T12:06:07.279Z,67.77
2017-10-19T12:08:35.565Z,72.97
2017-10-19T12:11:03.899Z,69.60
2017-10-19T12:13:32.189Z,69.50
2017-10-19T12:16:00.511Z,75.83
2017-10-19T12:18:29.567Z,76.60
2017-10-19T12:20:57.907Z,78.80
2017-10-19T12:23:26.975Z,66.67
2017-10-19T12:25:55.298Z,68.70
2017-10-19T12:28:24.377Z,72.60
2017-10-19T12:30:52.703Z,75.80
2017-10-19T12:33:21.760Z,68.30
2017-10-19T12:35:50.087Z,77.73
2017-10-19T12:38:19.891Z,66.20
2017-10-19T12:40:48.220Z,63.60
2017-10-19T12:43:17.278Z,65.83
2017-10-19T12:45:45.602Z,63.27
2017-10-19T12:48:14.679Z,73.07
2017-10-19T12:50:43.016Z,60.80
2017-10-19T12:53:12.077Z,68.37
2017-10-19T12:55:40.367Z,69.90
2017-10-19T12:58:08.699Z,66.07
2017-10-19T13:00:37.791Z,62.10
2017-10-19T13:03:06.857Z,65.33
2017-10-19T13:05:35.192Z,72.37
2017-10-19T13:08:04.255Z,60.50
2017-10-19T13:10:32.730Z,71.30
2017-10-19T13:13:01.063Z,67.20
2017-10-19T13:15:29.363Z,71.60
2017-10-19T13:17:58.458Z,62.90
2017-10-19T13:20:26.780Z,66.10
2017-10-19T13:22:55.838Z,67.83
2017-10-19T13:25:24.159Z,60.57
2017-10-19T13:27:53.276Z,59.27
2017-10-19T13:30:22.335Z,58.50
2017-10-19T13:32:50.629Z,67.57
2017-10-19T13:35:18.979Z,59.20
2017-10-19T13:37:48.029Z,66.07
2017-10-19T13:40:16.351Z,63.83
2017-10-19T13:42:46.161Z,70.50
2017-10-19T13:45:14.475Z,68.60
2017-10-19T13:47:43.570Z,67.57
2017-10-19T13:50:13.398Z,65.90
2017-10-19T13:52:43.195Z,83.00
2017-10-19T13:55:11.530Z,71.63
2017-10-19T13:57:40.590Z,66.57
2017-10-19T14:00:08.895Z,74.13
2017-10-19T14:02:37.214Z,88.40
2017-10-19T14:05:06.274Z,76.00
2017-10-19T14:07:34.600Z,73.03
2017-10-19T14:10:02.900Z,73.27
2017-10-19T14:12:31.997Z,82.07
2017-10-19T14:15:00.331Z,77.07
2017-10-19T14:17:28.691Z,77.30
2017-10-19T14:19:57.753Z,72.83
2017-10-19T14:22:26.058Z,75.07
2017-10-19T14:24:54.412Z,77.50
2017-10-19T14:27:22.713Z,68.33
2017-10-19T14:29:51.012Z,75.77
2017-10-19T14:32:19.335Z,79.87
2017-10-19T14:34:48.440Z,74.03
2017-10-19T14:37:18.254Z,81.17
2017-10-19T14:39:46.600Z,80.10
2017-10-19T14:42:14.902Z,75.03
2017-10-19T14:44:43.202Z,80.87
2017-10-19T14:47:11.526Z,82.13
2017-10-19T14:49:40.636Z,80.73
2017-10-19T14:52:10.456Z,78.10
2017-10-19T14:54:40.291Z,82.30
2017-10-19T14:57:10.095Z,72.90
2017-10-19T14:59:38.406Z,76.17
2017-10-19T15:02:07.510Z,76.80
2017-10-19T15:04:37.302Z,82.23
2017-10-19T15:07:06.014Z,81.87
2017-10-19T15:09:35.106Z,86.23
2017-10-19T15:12:03.435Z,79.63
2017-10-19T15:14:32.547Z,79.93
2017-10-19T15:17:01.611Z,82.77
2017-10-19T15:19:29.943Z,87.43
2017-10-19T15:21:59.068Z,87.23
2017-10-19T15:24:28.138Z,80.80
2017-10-19T15:26:56.505Z,76.80
2017-10-19T15:29:24.809Z,83.47
2017-10-19T15:31:53.143Z,71.47
2017-10-19T15:34:22.194Z,81.87
2017-10-19T15:36:50.539Z,76.80
2017-10-19T15:39:19.592Z,84.57
2017-10-19T15:41:48.195Z,88.40
2017-10-19T15:44:16.549Z,85.07
2017-10-19T15:46:44.852Z,89.37
2017-10-19T15:49:13.167Z,77.93
2017-10-19T15:51:41.644Z,80.60
2017-10-19T15:54:10.046Z,80.23
2017-10-19T15:56:38.370Z,85.37
2017-10-19T15:59:07.450Z,80.43
2017-10-19T16:01:35.737Z,85.20
2017-10-19T16:04:04.054Z,94.07
2017-10-19T16:06:33.300Z,97.87
2017-10-19T16:09:01.595Z,95.30
2017-10-19T16:11:31.787Z,92.50
2017-10-19T16:14:00.083Z,99.13
2017-10-19T16:16:28.523Z,96.70
2017-10-19T16:18:56.888Z,92.93
2017-10-19T16:21:25.179Z,92.03
2017-10-19T16:23:53.503Z,98.03
2017-10-19T16:26:21.831Z,95.10
2017-10-19T16:28:50.129Z,100.60
2017-10-19T16:31:19.223Z,88.87
2017-10-19T16:33:47.518Z,95.73
2017-10-19T16:36:15.851Z,99.00
2017-10-19T16:38:44.582Z,107.93
2017-10-19T16:41:12.964Z,117.20
2017-10-19T16:43:41.294Z,107.10
2017-10-19T16:46:10.395Z,111.30
2017-10-19T16:48:38.691Z,105.20
2017-10-19T16:51:07.793Z,111.30
2017-10-19T16:53:36.690Z,111.57
2017-10-19T16:56:05.027Z,115.70
2017-10-19T16:58:33.362Z,113.23
2017-10-19T17:01:01.983Z,111.93
2017-10-19T17:03:30.387Z,124.00
2017-10-19T17:05:58.702Z,117.13
2017-10-19T17:08:27.042Z,120.50
2017-10-19T17:10:55.349Z,118.73
2017-10-19T17:13:24.440Z,121.63
2017-10-19T17:15:53.532Z,122.23
2017-10-19T17:18:21.875Z,118.77
2017-10-19T17:20:50.179Z,121.43
2017-10-19T17:23:18.520Z,129.37
2017-10-19T17:28:17.743Z,124.53
2017-10-19T17:30:46.153Z,125.30
2017-10-19T17:33:14.860Z,131.20
2017-10-19T17:35:44.407Z,138.53
2017-10-19T17:38:12.745Z,137.03
2017-10-19T17:40:41.051Z,127.13
2017-10-19T17:43:10.159Z,131.00
2017-10-19T17:45:39.232Z,136.10
2017-10-19T17:48:07.567Z,144.43
2017-10-19T17:50:36.683Z,144.40
2017-10-19T17:53:05.780Z,138.17
2017-10-19T17:55:34.887Z,134.30
2017-10-19T17:58:03.956Z,140.70
2017-10-19T18:00:32.264Z,139.30
2017-10-19T18:03:02.116Z,148.87
2017-10-19T18:05:31.218Z,174.83
2017-10-19T18:07:59.570Z,186.33
2017-10-19T18:10:27.881Z,180.00
2017-10-19T18:12:57.707Z,214.83
2017-10-19T18:15:26.043Z,233.17
2017-10-19T18:17:54.345Z,234.93
2017-10-19T18:20:23.619Z,224.10
2017-10-19T18:22:52.674Z,276.40
2017-10-19T18:25:21.709Z,282.40
2017-10-19T18:27:51.517Z,267.10
2017-10-19T18:30:19.848Z,227.10
2017-10-19T18:32:48.955Z,270.70
2017-10-19T18:35:18.055Z,249.63
2017-10-19T18:37:47.137Z,269.40
2017-10-19T18:40:15.459Z,232.07
2017-10-19T18:42:44.575Z,178.90
2017-10-19T18:45:13.666Z,221.10
2017-10-19T18:47:42.771Z,192.57
2017-10-19T18:50:11.875Z,193.83
2017-10-19T18:52:40.187Z,161.83
2017-10-19T18:55:09.284Z,156.27
2017-10-19T18:57:38.359Z,159.93
2017-10-19T19:00:06.687Z,168.10
2017-10-19T19:02:35.792Z,144.07
2017-10-19T19:05:04.876Z,155.10
2017-10-19T19:07:33.232Z,160.90
2017-10-19T19:10:01.658Z,155.33
2017-10-19T19:12:31.505Z,149.93
2017-10-19T19:15:00.609Z,159.63
2017-10-19T19:17:29.697Z,167.40
2017-10-19T19:19:58.019Z,154.13
2017-10-19T19:22:27.220Z,166.30
2017-10-19T19:24:56.332Z,143.83
2017-10-19T19:27:25.398Z,159.90
2017-10-19T19:29:53.765Z,165.73
2017-10-19T19:32:22.109Z,173.20
2017-10-19T19:34:51.302Z,170.87
2017-10-19T19:37:20.365Z,186.40
2017-10-19T19:39:48.714Z,182.63
2017-10-19T19:42:17.929Z,183.60
2017-10-19T19:44:47.027Z,182.80
2017-10-19T19:47:16.836Z,180.67
2017-10-19T19:49:45.195Z,175.07
2017-10-19T19:52:13.540Z,178.30
2017-10-19T19:54:41.878Z,175.07
2017-10-19T19:57:10.214Z,180.13
2017-10-19T19:59:38.534Z,168.50
2017-10-19T20:02:07.640Z,189.73
2017-10-19T20:04:36.704Z,171.97
2017-10-19T20:07:05.051Z,158.60
2017-10-19T20:09:33.412Z,171.37
2017-10-19T20:12:01.738Z,185.97
2017-10-19T20:14:30.060Z,170.43
2017-10-19T20:16:58.399Z,178.77
2017-10-19T20:19:27.458Z,173.83
2017-10-19T20:21:56.102Z,164.27
2017-10-19T20:24:25.219Z,174.73
2017-10-19T20:26:57.155Z,163.53
2017-10-19T20:29:25.496Z,161.57
2017-10-19T20:31:53.849Z,154.73
2017-10-19T20:34:22.150Z,160.10
2017-10-19T20:36:51.263Z,154.97
2017-10-19T20:39:20.357Z,155.23
2017-10-19T20:41:48.710Z,150.07
2017-10-19T20:44:17.040Z,154.47
2017-10-19T20:46:45.354Z,145.77
2017-10-19T20:49:13.706Z,151.87
2017-10-19T20:51:42.010Z,158.57
2017-10-19T20:54:10.356Z,160.70
2017-10-19T20:56:38.683Z,157.70
2017-10-19T20:59:06.989Z,155.10
2017-10-19T21:01:35.324Z,165.20
2017-10-19T21:04:03.625Z,163.23
2017-10-19T21:06:31.945Z,183.47
2017-10-19T21:09:00.296Z,191.77
2017-10-19T21:11:28.639Z,169.67
2017-10-19T21:13:57.714Z,176.30
2017-10-19T21:16:26.096Z,176.77
2017-10-19T21:18:54.391Z,164.53
2017-10-19T21:21:22.701Z,166.37
2017-10-19T21:23:51.062Z,152.03
2017-10-19T21:26:19.354Z,137.63
2017-10-19T21:28:47.699Z,148.53
2017-10-19T21:31:16.771Z,147.40
2017-10-19T21:33:45.104Z,154.67
2017-10-19T21:36:13.455Z,145.90
2017-10-19T21:38:41.768Z,161.43
2017-10-19T21:41:10.871Z,151.23
2017-10-19T21:43:39.959Z,158.63
2017-10-19T21:46:08.286Z,174.57
2017-10-19T21:48:37.360Z,165.50
2017-10-19T21:51:05.717Z,183.30
2017-10-19T21:53:34.020Z,160.13
2017-10-19T21:56:02.328Z,187.43
2017-10-19T21:58:30.678Z,166.07
2017-10-19T22:00:59.029Z,209.30
2017-10-19T22:03:28.095Z,200.80
2017-10-19T22:05:56.429Z,216.20
2017-10-19T22:08:25.536Z,207.30
2017-10-19T22:10:54.599Z,226.00
2017-10-19T22:13:22.926Z,186.13
2017-10-19T22:15:51.998Z,168.47
2017-10-19T22:18:20.344Z,134.40
2017-10-19T22:20:48.647Z,147.20
2017-10-19T22:23:16.972Z,150.70
2017-10-19T22:25:45.305Z,145.17
2017-10-19T22:28:14.371Z,151.10
2017-10-19T22:30:42.675Z,196.03
2017-10-19T22:33:11.023Z,168.80
2017-10-19T22:35:39.355Z,160.33
2017-10-19T22:38:07.687Z,135.67
2017-10-19T22:40:35.987Z,142.03
2017-10-19T22:43:04.327Z,136.70
2017-10-19T22:45:32.638Z,259.90
2017-10-19T22:48:01.703Z,189.60
2017-10-19T22:50:30.043Z,135.33
2017-10-19T22:52:58.387Z,151.50
2017-10-19T22:55:26.719Z,129.47
2017-10-19T22:57:55.783Z,120.73
2017-10-19T23:00:24.128Z,111.73
2017-10-19T23:02:52.426Z,113.00
2017-10-19T23:05:20.727Z,114.93
2017-10-19T23:07:49.063Z,111.93
2017-10-19T23:10:17.376Z,115.27
2017-10-19T23:12:46.487Z,178.83
2017-10-19T23:15:15.552Z,562.87
2017-10-19T23:17:43.870Z,403.13
2017-10-19T23:20:12.975Z,458.57
2017-10-19T23:22:42.081Z,443.87
2017-10-19T23:25:10.376Z,370.00
2017-10-19T23:27:39.470Z,386.70
2017-10-19T23:30:08.162Z,126.07
2017-10-19T23:32:36.468Z,113.53
2017-10-19T23:35:04.781Z,128.43
2017-10-19T23:37:33.871Z,112.03
2017-10-19T23:40:02.938Z,106.87
2017-10-19T23:42:31.288Z,106.07
2017-10-19T23:44:59.585Z,96.23
2017-10-19T23:47:27.892Z,111.33
2017-10-19T23:49:56.260Z,113.10
2017-10-19T23:52:24.568Z,102.17
2017-10-19T23:54:52.872Z,218.53
2017-10-19T23:57:21.211Z,271.13
2017-10-19T23:59:50.282Z,190.00
